Time;durP1;ratioP1;P1;durP2;ratioP2;P2;SDS_P1;SDS_P2;PMS_P1;PMS_P2;Temp;Humidity;BMP_temperature;BMP_pressure;BME280_temperature;BME280_humidity;BME280_pressure;Samples;Min_cycle;Max_cycle;Signal;HPM_P1;HPM_P2
2024/03/27 00:01:25;;;;;;;8.87;4.70;;;11.20;99.90;;;;;;823613;173;26556;-82
2024/03/27 00:03:52;;;;;;;6.73;4.07;;;11.20;99.90;;;;;;802021;171;27155;-82
2024/03/27 00:09:23;;;;;;;7.50;4.53;;;11.30;99.70;;;;;;801640;178;26479;-79
2024/03/27 00:12:03;;;;;;;6.37;3.73;;;11.30;99.90;;;;;;777048;184;26492;-81
2024/03/27 00:14:31;;;;;;;6.73;3.93;;;11.30;99.90;;;;;;803833;177;26601;-80
2024/03/27 00:17:01;;;;;;;7.70;4.53;;;11.20;99.90;;;;;;802485;176;26596;-82
2024/03/27 00:19:29;;;;;;;7.20;4.77;;;11.20;99.90;;;;;;777590;184;26454;-83
2024/03/27 00:22:09;;;;;;;;;;;;;;;;;;;;;
2024/03/27 00:24:36;;;;;;;7.43;4.17;;;11.20;99.90;;;;;;788833;179;26467;-82
2024/03/27 00:27:04;;;;;;;6.10;3.90;;;11.20;99.90;;;;;;801819;176;26462;-82
2024/03/27 00:29:37;;;;;;;8.90;4.40;;;11.20;99.90;;;;;;782686;183;26458;-81
2024/03/27 00:32:07;;;;;;;6.43;4.40;;;11.20;99.90;;;;;;764359;187;26459;-81
2024/03/27 00:34:39;;;;;;;6.73;4.60;;;11.20;99.60;;;;;;768575;184;26513;-82
2024/03/27 00:37:09;;;;;;;7.43;4.20;;;11.30;99.90;;;;;;765880;184;26565;-80
2024/03/27 00:39:39;;;;;;;8.87;4.37;;;11.30;99.90;;;;;;773478;184;26485;-80
2024/03/27 00:42:21;;;;;;;;;;;;;;;;;;;;;
2024/03/27 00:45:00;;;;;;;8.30;4.70;;;11.30;99.90;;;;;;806779;176;26509;-84
2024/03/27 00:47:51;;;;;;;4.80;3.97;;;11.30;99.90;;;;;;780532;180;26991;-82
2024/03/27 00:50:41;;;;;;;7.23;4.80;;;11.30;99.90;;;;;;806859;177;26473;-82
2024/03/27 00:53:22;;;;;;;9.07;4.27;;;11.30;99.90;;;;;;787237;180;26512;-82
2024/03/27 00:56:19;;;;;;;8.67;4.77;;;11.20;99.90;;;;;;785724;181;26428;-88
2024/03/27 00:58:52;;;;;;;8.57;3.90;;;11.20;99.90;;;;;;782237;182;26500;-84
2024/03/27 01:01:30;;;;;;;6.87;4.10;;;11.20;99.90;;;;;;807944;176;26984;-84
2024/03/27 01:03:56;;;;;;;5.03;3.70;;;11.20;99.90;;;;;;807107;173;26466;-83
2024/03/27 01:06:22;;;;;;;10.07;4.50;;;11.20;99.90;;;;;;807166;174;26471;-83
2024/03/27 01:08:49;;;;;;;9.90;4.70;;;11.10;99.90;;;;;;803374;179;26425;-83
2024/03/27 01:11:16;;;;;;;9.77;4.20;;;11.10;99.90;;;;;;793395;180;26393;-83
2024/03/27 01:13:42;;;;;;;8.13;4.30;;;11.10;99.90;;;;;;790982;180;26463;-83
2024/03/27 01:16:09;;;;;;;8.37;4.67;;;11.10;99.90;;;;;;801321;179;26463;-84
2024/03/27 01:18:36;;;;;;;9.00;4.27;;;11.10;99.90;;;;;;792475;181;26429;-83
2024/03/27 01:21:02;;;;;;;7.40;4.50;;;11.10;99.90;;;;;;796637;175;26445;-84
2024/03/27 01:23:29;;;;;;;7.37;4.20;;;11.10;99.90;;;;;;791934;180;26367;-84
2024/03/27 01:25:55;;;;;;;7.00;4.20;;;11.00;99.90;;;;;;793456;176;26475;-83
2024/03/27 01:28:22;;;;;;;7.50;4.63;;;11.00;99.90;;;;;;779973;184;26496;-82
2024/03/27 01:30:49;;;;;;;7.93;5.00;;;11.00;99.90;;;;;;788093;181;27028;-83
2024/03/27 01:33:15;;;;;;;9.33;4.10;;;11.00;99.90;;;;;;789748;180;26433;-84
2024/03/27 01:35:44;;;;;;;7.87;4.03;;;11.00;99.90;;;;;;796449;180;28082;-83
2024/03/27 01:38:10;;;;;;;6.23;4.00;;;11.00;99.90;;;;;;793649;180;26434;-84
2024/03/27 01:40:37;;;;;;;9.63;4.83;;;11.00;99.90;;;;;;794663;180;26684;-84
2024/03/27 01:43:03;;;;;;;8.43;4.50;;;10.90;99.90;;;;;;795378;180;26453;-84
2024/03/27 01:45:30;;;;;;;7.53;4.23;;;10.90;99.90;;;;;;795171;180;26432;-84
2024/03/27 01:47:57;;;;;;;6.70;4.40;;;10.90;99.90;;;;;;794246;180;26433;-83
2024/03/27 01:50:28;;;;;;;7.23;4.10;;;10.80;99.90;;;;;;796826;179;26984;-83
2024/03/27 01:52:50;;;;;;;5.70;4.10;;;10.80;99.90;;;;;;792960;180;26436;-83
2024/03/27 01:55:17;;;;;;;6.80;4.50;;;10.80;99.90;;;;;;796219;179;26473;-83
2024/03/27 01:57:43;;;;;;;6.90;4.60;;;10.70;99.90;;;;;;797501;180;26452;-83
2024/03/27 02:00:10;;;;;;;8.50;4.57;;;10.70;99.90;;;;;;795518;180;26455;-84
2024/03/27 02:02:37;;;;;;;6.47;4.20;;;10.60;99.90;;;;;;796372;180;26436;-83
2024/03/27 02:05:05;;;;;;;11.67;6.30;;;10.70;99.90;;;;;;794696;180;26415;-83
2024/03/27 02:07:31;;;;;;;7.93;4.47;;;10.60;99.90;;;;;;797198;180;26466;-84
2024/03/27 02:09:57;;;;;;;8.73;4.37;;;10.60;99.90;;;;;;794647;180;26999;-81
2024/03/27 02:12:24;;;;;;;7.80;4.30;;;10.60;99.90;;;;;;796237;180;26429;-83
2024/03/27 02:14:51;;;;;;;9.37;4.70;;;10.60;99.90;;;;;;793745;177;26512;-83
2024/03/27 02:17:17;;;;;;;8.80;4.70;;;10.60;99.90;;;;;;793941;180;26637;-83
2024/03/27 02:19:44;;;;;;;6.37;3.83;;;10.60;99.90;;;;;;794048;180;26600;-82
2024/03/27 02:22:10;;;;;;;10.23;4.00;;;10.60;99.90;;;;;;796561;180;26464;-83
2024/03/27 02:24:47;;;;;;;8.97;5.43;;;10.50;99.90;;;;;;795008;179;26501;-84
2024/03/27 02:27:14;;;;;;;7.70;4.57;;;10.60;99.90;;;;;;797707;180;26412;-82
2024/03/27 02:29:40;;;;;;;5.73;3.93;;;10.60;99.90;;;;;;794420;179;26517;-83
2024/03/27 02:32:07;;;;;;;8.53;4.27;;;10.60;99.90;;;;;;795826;180;26433;-83
2024/03/27 02:34:33;;;;;;;6.37;4.00;;;10.60;99.90;;;;;;795563;178;26448;-83
2024/03/27 02:37:00;;;;;;;8.67;4.50;;;10.70;99.90;;;;;;796111;180;26426;-83
2024/03/27 02:39:27;;;;;;;9.33;5.13;;;10.70;99.90;;;;;;795269;180;26474;-84
2024/03/27 02:41:53;;;;;;;5.27;4.20;;;10.70;99.90;;;;;;793949;180;26454;-82
2024/03/27 02:44:20;;;;;;;7.60;4.50;;;10.70;99.90;;;;;;796544;178;26457;-85
2024/03/27 02:46:46;;;;;;;5.53;3.80;;;10.70;99.90;;;;;;795405;180;26417;-85
2024/03/27 02:49:13;;;;;;;7.53;4.57;;;10.70;99.90;;;;;;795511;180;26990;-84
2024/03/27 02:51:40;;;;;;;7.13;4.07;;;10.70;99.90;;;;;;796219;180;26444;-83
2024/03/27 02:54:06;;;;;;;8.77;3.90;;;10.70;99.90;;;;;;796852;178;26973;-84
2024/03/27 02:56:33;;;;;;;8.60;4.40;;;10.70;99.90;;;;;;795285;180;26438;-83
2024/03/27 02:58:59;;;;;;;10.30;4.63;;;10.70;99.90;;;;;;796060;180;26456;-85
2024/03/27 03:01:26;;;;;;;6.57;4.43;;;10.70;99.90;;;;;;795130;179;26462;-84
2024/03/27 03:03:53;;;;;;;6.87;4.40;;;10.60;99.90;;;;;;795048;180;26421;-84
2024/03/27 03:06:19;;;;;;;7.37;4.80;;;10.60;99.90;;;;;;798154;177;26971;-82
2024/03/27 03:08:46;;;;;;;7.57;4.43;;;10.70;99.90;;;;;;796707;179;26442;-82
2024/03/27 03:11:12;;;;;;;8.67;4.60;;;10.60;99.90;;;;;;797105;180;26982;-82
2024/03/27 03:13:39;;;;;;;9.57;4.73;;;10.50;99.90;;;;;;796356;180;26428;-84
2024/03/27 03:16:06;;;;;;;8.07;5.00;;;10.50;99.90;;;;;;796633;180;26454;-82
2024/03/27 03:18:33;;;;;;;9.10;5.37;;;10.50;99.90;;;;;;795182;180;26474;-83
2024/03/27 03:21:02;;;;;;;8.93;4.60;;;10.50;99.90;;;;;;794514;180;26444;-84
2024/03/27 03:23:28;;;;;;;7.60;4.40;;;10.50;99.90;;;;;;795397;180;26416;-83
2024/03/27 03:25:55;;;;;;;7.57;4.57;;;10.50;99.90;;;;;;795468;180;27685;-84
2024/03/27 03:28:21;;;;;;;7.83;4.77;;;10.50;99.90;;;;;;794907;180;26520;-84
2024/03/27 03:30:48;;;;;;;7.20;4.67;;;10.50;99.90;;;;;;796488;180;26609;-84
2024/03/27 03:33:15;;;;;;;6.17;4.47;;;10.50;99.90;;;;;;794891;175;26436;-83
2024/03/27 03:35:41;;;;;;;10.83;4.50;;;10.50;99.90;;;;;;793940;176;26485;-83
2024/03/27 03:38:08;;;;;;;8.20;5.00;;;10.50;99.90;;;;;;793811;180;26479;-84
2024/03/27 03:40:56;;;;;;;6.00;3.80;;;10.40;99.90;;;;;;795382;180;26430;-83
2024/03/27 03:43:23;;;;;;;7.57;3.83;;;10.40;99.90;;;;;;795126;180;26441;-84
2024/03/27 03:45:50;;;;;;;7.30;4.37;;;10.50;99.90;;;;;;796786;180;26432;-83
2024/03/27 03:48:16;;;;;;;5.97;4.00;;;10.50;99.90;;;;;;794475;179;26449;-84
2024/03/27 03:50:43;;;;;;;6.73;4.00;;;10.40;99.90;;;;;;794727;180;26591;-83
2024/03/27 03:53:09;;;;;;;7.27;4.40;;;10.50;99.90;;;;;;795509;178;26425;-84
2024/03/27 03:55:36;;;;;;;6.63;4.60;;;10.40;99.90;;;;;;795041;180;26449;-83
2024/03/27 03:58:03;;;;;;;10.40;4.30;;;10.40;99.90;;;;;;796090;180;26433;-82
2024/03/27 04:00:29;;;;;;;8.47;4.33;;;10.40;99.90;;;;;;794536;180;26440;-84
2024/03/27 04:02:56;;;;;;;8.70;4.30;;;10.50;99.90;;;;;;793735;180;26413;-82
2024/03/27 04:05:22;;;;;;;7.93;4.00;;;10.40;99.90;;;;;;795565;180;26416;-82
2024/03/27 04:07:49;;;;;;;8.53;4.30;;;10.50;99.90;;;;;;796084;180;26432;-82
2024/03/27 04:10:16;;;;;;;7.87;4.20;;;10.50;99.90;;;;;;796963;179;26473;-84
2024/03/27 04:12:43;;;;;;;6.73;4.23;;;10.50;99.90;;;;;;795197;180;26408;-83
2024/03/27 04:15:09;;;;;;;7.80;4.50;;;10.50;99.90;;;;;;795451;180;26424;-83
2024/03/27 04:17:36;;;;;;;7.37;4.50;;;10.50;99.90;;;;;;794844;178;26465;-83
2024/03/27 04:20:10;;;;;;;7.43;4.00;;;10.40;99.90;;;;;;799470;179;26444;-83
2024/03/27 04:22:29;;;;;;;6.53;4.43;;;10.50;99.90;;;;;;798182;180;26448;-83
2024/03/27 04:24:56;;;;;;;7.63;3.97;;;10.50;99.90;;;;;;798138;180;26478;-82
2024/03/27 04:27:24;;;;;;;8.07;4.40;;;10.50;99.90;;;;;;794361;181;26598;-83
2024/03/27 04:29:54;;;;;;;6.43;4.43;;;10.50;99.90;;;;;;797406;179;26475;-83
2024/03/27 04:32:20;;;;;;;6.47;4.63;;;10.50;99.90;;;;;;796044;180;26448;-83
2024/03/27 04:34:47;;;;;;;9.90;4.20;;;10.50;99.90;;;;;;798028;179;26429;-83
2024/03/27 04:37:14;;;;;;;6.03;4.53;;;10.50;99.90;;;;;;797761;180;26446;-84
2024/03/27 04:39:40;;;;;;;6.93;4.27;;;10.50;99.90;;;;;;797574;180;26464;-83
2024/03/27 04:42:08;;;;;;;8.67;4.63;;;10.50;99.90;;;;;;796067;180;26431;-82
2024/03/27 04:44:34;;;;;;;7.07;4.80;;;10.50;99.90;;;;;;795094;180;26428;-84
2024/03/27 04:47:01;;;;;;;7.27;4.57;;;10.50;99.90;;;;;;797164;177;26469;-83
2024/03/27 04:49:27;;;;;;;6.60;4.10;;;10.50;99.90;;;;;;795439;180;26443;-83
2024/03/27 04:51:54;;;;;;;7.77;4.43;;;10.60;99.90;;;;;;795968;180;26436;-84
2024/03/27 04:54:20;;;;;;;6.43;4.30;;;10.60;99.90;;;;;;793943;181;26422;-83
2024/03/27 04:56:47;;;;;;;7.33;4.17;;;10.60;99.90;;;;;;794718;180;26486;-82
2024/03/27 04:59:14;;;;;;;10.17;4.53;;;10.60;99.90;;;;;;794354;180;26465;-83
2024/03/27 05:01:40;;;;;;;8.57;4.63;;;10.70;99.90;;;;;;793485;180;26442;-82
2024/03/27 05:04:07;;;;;;;6.77;4.27;;;10.70;99.90;;;;;;793727;180;26409;-83
2024/03/27 05:06:39;;;;;;;7.87;4.30;;;10.70;99.90;;;;;;795797;180;26425;-83
2024/03/27 05:09:00;;;;;;;7.13;4.37;;;10.80;99.90;;;;;;793023;180;26449;-82
2024/03/27 05:11:27;;;;;;;7.83;3.97;;;10.80;99.90;;;;;;795238;179;26425;-83
2024/03/27 05:13:53;;;;;;;9.47;4.57;;;10.80;99.90;;;;;;796196;180;26601;-83
2024/03/27 05:16:20;;;;;;;8.83;4.70;;;10.80;99.90;;;;;;795094;180;26524;-82
2024/03/27 05:18:46;;;;;;;8.27;5.03;;;10.80;99.90;;;;;;796851;180;26433;-82
2024/03/27 05:21:13;;;;;;;8.73;5.23;;;10.80;99.90;;;;;;794957;180;26445;-84
2024/03/27 05:23:40;;;;;;;7.60;5.03;;;10.80;99.90;;;;;;794058;177;26450;-82
2024/03/27 05:26:06;;;;;;;11.70;5.30;;;10.80;99.90;;;;;;793552;180;26977;-83
2024/03/27 05:28:33;;;;;;;7.00;4.70;;;10.80;99.90;;;;;;792962;181;26421;-82
2024/03/27 05:30:59;;;;;;;11.70;5.07;;;10.70;99.90;;;;;;796971;179;26464;-84
2024/03/27 05:33:26;;;;;;;7.67;5.23;;;10.70;99.90;;;;;;797117;178;26926;-80
2024/03/27 05:35:53;;;;;;;8.33;5.20;;;10.70;99.90;;;;;;792690;179;26998;-83
2024/03/27 05:38:19;;;;;;;9.20;6.00;;;10.70;99.90;;;;;;797771;180;26464;-83
2024/03/27 05:40:46;;;;;;;10.93;5.17;;;10.70;99.90;;;;;;797006;176;26460;-82
2024/03/27 05:43:13;;;;;;;9.90;5.60;;;10.70;99.90;;;;;;797014;179;26418;-82
2024/03/27 05:45:39;;;;;;;12.43;6.20;;;10.70;99.90;;;;;;790861;179;26512;-82
2024/03/27 05:48:06;;;;;;;10.37;6.10;;;10.70;99.90;;;;;;796524;180;26457;-82
2024/03/27 05:50:32;;;;;;;9.50;5.67;;;10.70;99.90;;;;;;796178;180;26443;-81
2024/03/27 05:52:59;;;;;;;12.90;5.90;;;10.70;99.90;;;;;;788646;181;26472;-83
2024/03/27 05:55:26;;;;;;;8.63;5.63;;;10.80;99.90;;;;;;799050;179;26446;-84
2024/03/27 05:57:52;;;;;;;11.00;5.57;;;10.80;99.90;;;;;;796402;176;26426;-83
2024/03/27 06:00:19;;;;;;;7.67;5.07;;;10.80;99.90;;;;;;796564;180;26513;-82
2024/03/27 06:02:46;;;;;;;9.87;5.50;;;10.80;99.90;;;;;;793381;179;26530;-84
2024/03/27 06:05:12;;;;;;;12.57;6.47;;;10.80;99.90;;;;;;796469;175;26445;-83
2024/03/27 06:10:28;;;;;;;9.40;5.50;;;10.90;99.90;;;;;;797759;179;26454;-83
2024/03/27 06:16:02;;;;;;;13.57;5.70;;;10.90;99.90;;;;;;817112;174;26431;-80
2024/03/27 06:18:29;;;;;;;8.37;5.77;;;11.00;99.90;;;;;;795377;171;26479;-80
2024/03/27 06:20:56;;;;;;;10.00;5.73;;;11.00;99.90;;;;;;802433;177;26995;-80
2024/03/27 06:23:23;;;;;;;12.33;6.10;;;11.00;99.90;;;;;;785223;180;26458;-80
2024/03/27 06:25:56;;;;;;;13.63;6.73;;;11.00;99.90;;;;;;776209;181;26514;-80
2024/03/27 06:28:22;;;;;;;13.20;6.33;;;11.00;99.90;;;;;;789569;179;26425;-81
2024/03/27 06:30:49;;;;;;;11.30;6.23;;;11.00;99.90;;;;;;806443;177;26423;-81
2024/03/27 06:33:15;;;;;;;12.23;6.77;;;11.00;99.90;;;;;;807750;177;28031;-82
2024/03/27 06:35:42;;;;;;;9.90;5.40;;;11.00;99.90;;;;;;807435;178;26407;-81
2024/03/27 06:38:10;;;;;;;8.97;6.00;;;11.00;99.90;;;;;;806763;177;26426;-81
2024/03/27 06:40:36;;;;;;;11.40;6.07;;;11.00;99.90;;;;;;807674;177;26474;-80
2024/03/27 06:43:05;;;;;;;11.33;6.47;;;11.00;99.90;;;;;;809820;175;26427;-81
2024/03/27 06:45:32;;;;;;;10.30;6.03;;;10.90;99.90;;;;;;810515;177;26553;-80
2024/03/27 06:47:58;;;;;;;14.20;5.93;;;10.90;99.90;;;;;;808743;178;26410;-82
2024/03/27 06:50:25;;;;;;;10.77;5.77;;;10.90;99.90;;;;;;808097;177;26453;-81
2024/03/27 06:52:51;;;;;;;12.60;6.00;;;10.90;99.90;;;;;;808015;177;26446;-79
2024/03/27 06:55:18;;;;;;;12.90;6.90;;;10.90;99.90;;;;;;807011;177;26443;-80
2024/03/27 06:57:44;;;;;;;11.03;7.30;;;11.00;99.90;;;;;;807731;178;27243;-81
2024/03/27 07:00:12;;;;;;;18.07;7.10;;;11.10;99.90;;;;;;807967;177;26443;-82
2024/03/27 07:02:38;;;;;;;15.60;7.97;;;11.00;99.90;;;;;;807041;177;26411;-80
2024/03/27 07:05:05;;;;;;;14.60;6.93;;;10.90;99.90;;;;;;806918;177;26443;-82
2024/03/27 07:07:32;;;;;;;14.27;7.27;;;11.00;99.90;;;;;;808219;177;26432;-80
2024/03/27 07:09:58;;;;;;;12.70;6.37;;;11.00;99.90;;;;;;808132;178;26454;-77
2024/03/27 07:12:25;;;;;;;17.37;7.23;;;11.10;99.90;;;;;;807470;177;26414;-79
2024/03/27 07:14:52;;;;;;;15.53;7.00;;;11.10;99.90;;;;;;806520;177;26414;-78
2024/03/27 07:17:18;;;;;;;15.60;7.03;;;11.20;99.90;;;;;;806540;177;26407;-77
2024/03/27 07:19:47;;;;;;;15.43;6.33;;;11.30;99.90;;;;;;806958;178;26518;-78
2024/03/27 07:22:14;;;;;;;13.70;6.70;;;11.40;99.90;;;;;;806023;178;26994;-78
2024/03/27 07:24:41;;;;;;;13.70;7.30;;;11.60;99.90;;;;;;805967;178;26465;-78
2024/03/27 07:27:07;;;;;;;12.27;6.80;;;11.70;99.90;;;;;;806845;178;26452;-78
2024/03/27 07:29:35;;;;;;;11.97;6.03;;;11.80;99.90;;;;;;806319;178;26471;-78
2024/03/27 07:32:01;;;;;;;8.20;5.83;;;11.90;99.90;;;;;;806176;178;26440;-79
2024/03/27 07:34:27;;;;;;;13.93;5.97;;;11.90;99.90;;;;;;807103;177;26415;-81
2024/03/27 07:36:54;;;;;;;15.03;5.60;;;11.80;99.90;;;;;;806051;177;26428;-81
2024/03/27 07:39:21;;;;;;;14.00;6.73;;;11.80;99.90;;;;;;807050;177;26426;-83
2024/03/27 07:41:47;;;;;;;6.90;4.80;;;11.70;99.90;;;;;;807436;175;26411;-81
2024/03/27 07:44:14;;;;;;;8.30;4.40;;;11.70;99.90;;;;;;807776;177;26487;-81
2024/03/27 07:46:41;;;;;;;8.30;4.90;;;11.70;99.90;;;;;;807777;178;26415;-82
2024/03/27 07:49:07;;;;;;;8.30;4.87;;;11.60;99.90;;;;;;808180;178;26448;-81
2024/03/27 07:51:34;;;;;;;7.70;4.60;;;11.60;99.90;;;;;;806905;177;26403;-81
2024/03/27 07:54:01;;;;;;;9.30;4.90;;;11.70;99.90;;;;;;810061;176;26447;-82
2024/03/27 07:56:27;;;;;;;7.10;3.77;;;11.70;99.90;;;;;;809789;177;26398;-80
2024/03/27 07:58:55;;;;;;;5.83;4.43;;;11.80;99.90;;;;;;809695;177;26411;-81
2024/03/27 08:01:21;;;;;;;6.33;4.20;;;11.80;99.90;;;;;;808893;177;26435;-81
2024/03/27 08:03:48;;;;;;;4.00;3.03;;;11.80;99.90;;;;;;808248;178;26415;-82
2024/03/27 08:06:14;;;;;;;4.20;3.20;;;11.90;99.90;;;;;;807939;177;26387;-83
2024/03/27 08:08:41;;;;;;;7.87;2.90;;;11.90;99.90;;;;;;808911;177;26957;-82
2024/03/27 08:11:09;;;;;;;3.67;3.00;;;12.00;99.90;;;;;;808396;178;26431;-82
2024/03/27 08:13:35;;;;;;;3.23;2.80;;;12.00;99.90;;;;;;808556;177;26431;-81
2024/03/27 08:16:02;;;;;;;3.30;2.70;;;11.90;99.90;;;;;;806801;178;26982;-82
2024/03/27 08:18:31;;;;;;;6.10;2.60;;;11.90;99.90;;;;;;807015;178;26439;-82
2024/03/27 08:20:57;;;;;;;3.07;2.40;;;11.90;99.90;;;;;;805670;177;26431;-82
2024/03/27 08:23:24;;;;;;;3.77;2.57;;;11.80;99.90;;;;;;807239;176;26416;-82
2024/03/27 08:25:51;;;;;;;4.70;2.77;;;11.80;99.90;;;;;;808044;177;26431;-82
2024/03/27 08:28:18;;;;;;;3.50;2.43;;;11.80;99.90;;;;;;807939;177;26448;-82
2024/03/27 08:30:45;;;;;;;4.30;2.60;;;11.70;99.90;;;;;;807356;177;27616;-82
2024/03/27 08:33:12;;;;;;;3.03;2.50;;;11.80;99.90;;;;;;808748;177;26406;-81
2024/03/27 08:35:39;;;;;;;4.40;3.13;;;11.80;99.90;;;;;;808727;177;26423;-82
2024/03/27 08:38:05;;;;;;;4.33;2.57;;;12.00;99.90;;;;;;807056;177;26423;-81
2024/03/27 08:40:32;;;;;;;7.27;2.67;;;12.10;99.90;;;;;;807538;178;26430;-81
2024/03/27 08:42:59;;;;;;;9.60;2.53;;;12.20;99.90;;;;;;807309;177;26402;-81
2024/03/27 08:45:26;;;;;;;5.67;2.47;;;12.20;99.90;;;;;;807702;178;26464;-82
2024/03/27 08:47:53;;;;;;;4.30;2.53;;;12.30;99.90;;;;;;807853;177;26404;-82
2024/03/27 08:50:19;;;;;;;12.57;5.43;;;12.60;99.90;;;;;;808254;177;26853;-82
2024/03/27 08:52:46;;;;;;;6.57;3.70;;;12.60;99.90;;;;;;807596;178;26434;-82
2024/03/27 08:55:13;;;;;;;5.07;2.73;;;12.70;99.90;;;;;;807344;178;26500;-81
2024/03/27 08:57:39;;;;;;;4.90;2.53;;;12.90;99.90;;;;;;806814;177;26411;-82
2024/03/27 09:00:10;;;;;;;4.03;3.40;;;12.80;99.90;;;;;;807486;177;26443;-81
2024/03/27 09:02:33;;;;;;;4.00;2.80;;;12.80;99.90;;;;;;807127;175;27057;-82
2024/03/27 09:05:00;;;;;;;3.03;2.30;;;12.60;99.90;;;;;;809223;176;26410;-82
2024/03/27 09:07:27;;;;;;;3.73;2.30;;;12.60;99.90;;;;;;809330;176;26439;-82
2024/03/27 09:09:53;;;;;;;6.20;2.70;;;12.50;99.90;;;;;;809215;176;26967;-82
2024/03/27 09:12:20;;;;;;;3.33;2.07;;;12.50;99.90;;;;;;808333;178;26407;-83
2024/03/27 09:14:47;;;;;;;3.13;2.30;;;12.60;99.90;;;;;;808302;176;27025;-82
2024/03/27 09:17:14;;;;;;;5.73;3.27;;;12.60;99.90;;;;;;808550;177;26435;-81
2024/03/27 09:19:40;;;;;;;3.10;2.27;;;12.60;99.90;;;;;;808086;178;26994;-83
2024/03/27 09:22:07;;;;;;;3.43;2.37;;;12.60;99.90;;;;;;808833;178;26422;-82
2024/03/27 09:24:34;;;;;;;3.17;2.20;;;12.70;99.90;;;;;;808042;177;26417;-83
2024/03/27 09:27:01;;;;;;;3.40;2.17;;;12.60;99.90;;;;;;807813;178;26418;-83
2024/03/27 09:29:27;;;;;;;5.37;3.17;;;12.50;99.90;;;;;;808474;178;26959;-82
2024/03/27 09:31:54;;;;;;;4.30;2.30;;;12.60;99.90;;;;;;808143;177;26383;-83
2024/03/27 09:34:21;;;;;;;4.03;2.10;;;12.70;99.90;;;;;;808235;177;26422;-83
2024/03/27 09:36:47;;;;;;;2.63;2.10;;;12.70;99.90;;;;;;808098;177;26412;-83
2024/03/27 09:39:14;;;;;;;3.23;2.23;;;12.60;99.90;;;;;;808288;177;26465;-83
2024/03/27 09:41:41;;;;;;;2.60;2.40;;;12.60;99.90;;;;;;807555;177;26420;-82
2024/03/27 09:44:11;;;;;;;4.77;2.33;;;12.60;99.90;;;;;;806885;177;26404;-82
2024/03/27 09:46:35;;;;;;;6.70;2.60;;;12.40;99.90;;;;;;807402;175;26394;-81
2024/03/27 09:49:02;;;;;;;5.43;2.50;;;12.40;99.90;;;;;;807402;173;26427;-81
2024/03/27 09:51:29;;;;;;;2.83;2.00;;;12.30;99.90;;;;;;807794;177;26450;-82
2024/03/27 09:53:55;;;;;;;6.17;2.23;;;12.10;99.90;;;;;;807625;176;26418;-83
2024/03/27 09:56:22;;;;;;;5.40;2.70;;;12.10;99.90;;;;;;806523;177;26448;-80
2024/03/27 09:58:49;;;;;;;5.47;2.40;;;12.10;99.90;;;;;;807497;177;26955;-81
2024/03/27 10:01:15;;;;;;;3.80;3.03;;;12.00;99.90;;;;;;808019;177;26438;-81
2024/03/27 10:03:42;;;;;;;4.07;2.33;;;12.10;99.90;;;;;;807835;177;26491;-79
2024/03/27 10:06:09;;;;;;;3.37;2.27;;;12.10;99.90;;;;;;807812;177;26423;-81
2024/03/27 10:08:35;;;;;;;3.67;2.53;;;12.20;99.90;;;;;;807228;178;26412;-81
2024/03/27 10:11:02;;;;;;;3.80;2.63;;;12.10;99.90;;;;;;808071;177;26473;-81
2024/03/27 10:13:29;;;;;;;4.73;2.60;;;12.10;99.90;;;;;;808138;177;26414;-82
2024/03/27 10:15:55;;;;;;;5.20;3.03;;;12.20;99.90;;;;;;808471;176;26428;-80
2024/03/27 10:18:24;;;;;;;3.90;2.60;;;12.10;99.90;;;;;;810655;176;26402;-81
2024/03/27 10:20:49;;;;;;;4.57;2.93;;;12.10;99.90;;;;;;808955;174;27077;-81
2024/03/27 10:23:16;;;;;;;4.40;3.07;;;12.10;99.90;;;;;;807850;177;26581;-81
2024/03/27 10:25:45;;;;;;;2.90;2.60;;;12.00;99.90;;;;;;809219;177;26457;-81
2024/03/27 10:28:16;;;;;;;5.33;3.00;;;11.80;99.90;;;;;;809315;175;26460;-80
2024/03/27 10:30:44;;;;;;;3.00;2.47;;;11.80;99.90;;;;;;809229;177;26412;-82
2024/03/27 10:33:12;;;;;;;4.70;2.70;;;11.80;99.90;;;;;;809124;176;26406;-82
2024/03/27 10:35:39;;;;;;;6.77;3.70;;;11.80;99.90;;;;;;809259;178;26412;-82
2024/03/27 10:38:05;;;;;;;5.80;3.40;;;11.90;99.90;;;;;;808566;177;26462;-81
2024/03/27 10:40:32;;;;;;;4.50;3.13;;;11.80;99.90;;;;;;809241;177;26430;-83
2024/03/27 10:43:03;;;;;;;4.43;3.57;;;12.10;99.90;;;;;;809260;176;26407;-83
2024/03/27 10:45:30;;;;;;;53.90;25.17;;;12.20;99.90;;;;;;809404;177;26435;-83
2024/03/27 10:47:57;;;;;;;49.57;23.03;;;12.00;99.90;;;;;;809585;177;26406;-81
2024/03/27 10:50:24;;;;;;;35.17;17.93;;;11.90;99.90;;;;;;809571;178;26433;-82
2024/03/27 10:52:52;;;;;;;8.83;6.07;;;11.90;99.90;;;;;;809094;178;26416;-81
2024/03/27 10:55:18;;;;;;;6.67;4.37;;;12.00;99.90;;;;;;808855;178;26462;-79
2024/03/27 10:57:45;;;;;;;8.30;4.20;;;11.90;99.90;;;;;;807937;177;26403;-80
2024/03/27 11:00:12;;;;;;;5.70;3.70;;;11.90;99.90;;;;;;808057;177;26442;-80
2024/03/27 11:02:39;;;;;;;10.83;5.67;;;11.90;99.90;;;;;;808366;178;26424;-81
2024/03/27 11:05:06;;;;;;;10.70;5.17;;;11.70;99.90;;;;;;805779;177;26440;-80
2024/03/27 11:07:33;;;;;;;8.30;6.23;;;11.60;99.90;;;;;;810796;177;26391;-81
2024/03/27 11:10:00;;;;;;;6.00;4.47;;;11.80;99.90;;;;;;807933;177;26427;-81
2024/03/27 11:12:27;;;;;;;7.93;5.00;;;11.70;99.90;;;;;;808350;178;26436;-83
2024/03/27 11:14:53;;;;;;;4.07;3.40;;;11.60;99.90;;;;;;807339;178;27995;-83
2024/03/27 11:17:20;;;;;;;6.60;3.70;;;11.40;99.90;;;;;;807407;178;26533;-82
2024/03/27 11:19:47;;;;;;;6.30;4.23;;;11.30;99.90;;;;;;806137;175;27094;-83
2024/03/27 11:22:14;;;;;;;12.53;7.23;;;11.30;99.90;;;;;;807800;178;26958;-82
2024/03/27 11:24:41;;;;;;;11.20;6.97;;;11.50;99.90;;;;;;807256;178;26552;-81
2024/03/27 11:27:08;;;;;;;15.57;9.07;;;11.80;99.90;;;;;;807180;175;26410;-81
2024/03/27 11:29:34;;;;;;;9.03;6.30;;;12.00;99.90;;;;;;809536;177;26418;-81
2024/03/27 11:32:01;;;;;;;7.77;4.17;;;11.90;99.90;;;;;;809276;177;26477;-79
2024/03/27 11:34:33;;;;;;;14.87;9.07;;;11.90;99.90;;;;;;808592;178;26464;-79
2024/03/27 11:37:00;;;;;;;9.03;6.50;;;12.10;99.90;;;;;;808931;176;26414;-80
2024/03/27 11:39:27;;;;;;;18.47;10.17;;;12.20;99.90;;;;;;808826;178;26447;-78
2024/03/27 11:41:54;;;;;;;8.43;5.80;;;12.10;99.90;;;;;;809189;178;26607;-78
2024/03/27 11:44:20;;;;;;;8.10;5.00;;;11.80;99.90;;;;;;809278;178;26530;-78
2024/03/27 11:46:47;;;;;;;18.63;9.87;;;11.70;99.90;;;;;;808944;178;26937;-81
2024/03/27 11:49:14;;;;;;;10.93;7.57;;;11.50;99.90;;;;;;809180;177;27070;-81
2024/03/27 11:51:42;;;;;;;9.77;6.97;;;11.50;99.90;;;;;;809347;178;26451;-79
2024/03/27 11:54:09;;;;;;;15.70;8.33;;;11.60;99.90;;;;;;809291;177;26475;-81
2024/03/27 11:56:41;;;;;;;6.77;4.30;;;11.60;99.90;;;;;;809728;178;26440;-80
2024/03/27 11:59:11;;;;;;;6.17;3.87;;;11.70;99.90;;;;;;809741;177;26442;-81
2024/03/27 12:01:39;;;;;;;3.33;3.03;;;11.70;99.90;;;;;;809942;177;27033;-80
2024/03/27 12:04:05;;;;;;;33.33;14.50;;;11.50;99.90;;;;;;809395;177;26410;-79
2024/03/27 12:06:33;;;;;;;24.57;13.43;;;11.70;99.90;;;;;;808898;178;26566;-82
2024/03/27 12:09:03;;;;;;;21.87;12.83;;;11.80;99.90;;;;;;807789;173;26482;-82
2024/03/27 12:11:36;;;;;;;6.50;4.30;;;11.70;99.90;;;;;;802665;177;26428;-84
2024/03/27 12:14:17;;;;;;;8.23;5.10;;;11.90;99.90;;;;;;810755;176;27022;-82
2024/03/27 12:17:13;;;;;;;7.17;4.40;;;11.90;99.90;;;;;;813475;174;26404;-83
2024/03/27 12:19:42;;;;;;;2.93;2.57;;;12.00;99.90;;;;;;820118;173;26480;-82
2024/03/27 12:22:11;;;;;;;3.50;3.20;;;11.50;99.90;;;;;;820835;173;26477;-82
2024/03/27 12:25:18;;;;;;;39.33;20.93;;;11.40;99.90;;;;;;816267;174;26410;-81
2024/03/27 12:28:05;;;;;;;10.90;5.97;;;11.70;99.90;;;;;;821212;173;26452;-84
2024/03/27 12:30:45;;;;;;;6.90;4.90;;;11.80;99.90;;;;;;816022;176;26440;-82
2024/03/27 12:33:38;;;;;;;4.90;3.20;;;11.90;99.90;;;;;;830045;173;26417;-83
2024/03/27 12:36:06;;;;;;;16.27;9.10;;;11.90;99.90;;;;;;829623;172;26541;-84
2024/03/27 12:38:44;;;;;;;4.00;2.90;;;11.50;99.90;;;;;;816279;173;26422;-79
2024/03/27 12:41:27;;;;;;;;;;;;;;;;;;;;;
2024/03/27 12:49:31;;;;;;;5.23;3.77;;;11.50;99.90;;;;;;822854;172;26416;-81
2024/03/27 12:52:24;;;;;;;4.27;3.33;;;11.40;99.90;;;;;;819386;173;26453;-83
2024/03/27 12:55:08;;;;;;;;;;;;;;;;;;;;;
2024/03/27 13:00:26;;;;;;;12.83;6.93;;;11.50;99.90;;;;;;812319;174;26460;-82
2024/03/27 13:02:53;;;;;;;7.63;5.33;;;11.40;99.90;;;;;;836025;171;26416;-81
2024/03/27 13:05:20;;;;;;;7.57;4.53;;;11.40;99.90;;;;;;840153;170;26409;-80
2024/03/27 13:07:46;;;;;;;21.87;13.00;;;11.30;99.90;;;;;;839804;171;26382;-81
2024/03/27 13:10:13;;;;;;;8.80;6.67;;;11.20;99.90;;;;;;835019;172;26584;-81